Time;durP1;ratioP1;P1;durP2;ratioP2;P2;SDS_P1;SDS_P2;PMS_P1;PMS_P2;Temp;Humidity;BMP_temperature;BMP_pressure;BME280_temperature;BME280_humidity;BME280_pressure;Samples;Min_cycle;Max_cycle;Signal;HPM_P1;HPM_P2
2023/05/23 00:00:03;;;;;;;4.53;4.13;;;;;;;;;;5054899;28;20459;-59
2023/05/23 00:02:30;;;;;;;4.37;3.97;;;;;;;;;;5055219;28;20455;-59
2023/05/23 00:04:58;;;;;;;4.27;3.67;;;;;;;;;;5055147;28;20452;-59
2023/05/23 00:07:25;;;;;;;4.83;4.43;;;;;;;;;;5055049;28;20526;-58
2023/05/23 00:09:53;;;;;;;5.50;4.70;;;;;;;;;;5054855;28;20885;-59
2023/05/23 00:12:20;;;;;;;6.83;4.10;;;;;;;;;;5054820;28;20782;-59
2023/05/23 00:14:47;;;;;;;4.47;4.07;;;;;;;;;;5054619;28;20457;-59
2023/05/23 00:17:16;;;;;;;4.20;3.90;;;;;;;;;;5054879;28;20796;-59
2023/05/23 00:19:44;;;;;;;6.10;4.27;;;;;;;;;;5054738;28;20448;-59
2023/05/23 00:22:14;;;;;;;6.50;4.60;;;;;;;;;;5054756;28;20501;-58
2023/05/23 00:24:41;;;;;;;4.93;4.57;;;;;;;;;;5054711;28;20447;-59
2023/05/23 00:27:09;;;;;;;4.73;4.03;;;;;;;;;;5054413;28;20530;-59
2023/05/23 00:29:36;;;;;;;4.10;3.80;;;;;;;;;;5054410;28;20454;-59
2023/05/23 00:32:03;;;;;;;6.40;4.53;;;;;;;;;;5054581;28;20483;-59
2023/05/23 00:34:33;;;;;;;7.60;5.10;;;;;;;;;;5054515;28;20461;-58
2023/05/23 00:37:01;;;;;;;5.20;4.47;;;;;;;;;;5054042;28;20540;-59
2023/05/23 00:39:27;;;;;;;5.27;4.83;;;;;;;;;;5054190;28;20456;-59
2023/05/23 00:41:55;;;;;;;7.00;4.67;;;;;;;;;;5054139;28;20454;-59
2023/05/23 00:44:23;;;;;;;5.30;4.33;;;;;;;;;;5054555;28;20451;-59
2023/05/23 00:46:52;;;;;;;5.43;4.90;;;;;;;;;;5054271;28;20455;-59
2023/05/23 00:49:19;;;;;;;4.40;4.10;;;;;;;;;;5054148;28;20451;-59
2023/05/23 00:51:48;;;;;;;4.50;4.10;;;;;;;;;;5054057;28;20442;-59
2023/05/23 00:54:16;;;;;;;5.13;4.40;;;;;;;;;;5053541;28;20569;-59
2023/05/23 00:56:43;;;;;;;4.47;4.07;;;;;;;;;;5053954;28;20486;-59
2023/05/23 00:59:11;;;;;;;4.90;4.50;;;;;;;;;;5053882;28;20447;-59
2023/05/23 01:01:40;;;;;;;11.53;4.27;;;;;;;;;;5053769;28;20452;-59
2023/05/23 01:04:10;;;;;;;4.90;4.50;;;;;;;;;;5053834;28;20446;-59
2023/05/23 01:06:37;;;;;;;4.70;4.10;;;;;;;;;;5053629;28;20938;-59
2023/05/23 01:09:06;;;;;;;4.40;4.10;;;;;;;;;;5053684;28;20454;-59
2023/05/23 01:11:35;;;;;;;4.80;4.47;;;;;;;;;;5053470;28;20468;-59
2023/05/23 01:14:07;;;;;;;6.97;4.70;;;;;;;;;;5053502;28;20482;-59
2023/05/23 01:16:39;;;;;;;9.53;4.77;;;;;;;;;;5053331;28;20479;-59
2023/05/23 01:19:19;;;;;;;5.27;4.20;;;;;;;;;;5053238;28;20454;-59
2023/05/23 01:21:51;;;;;;;5.23;4.50;;;;;;;;;;5053355;28;20462;-59
2023/05/23 01:24:36;;;;;;;4.90;3.80;;;;;;;;;;5053487;28;20807;-59
2023/05/23 01:27:08;;;;;;;7.10;3.83;;;;;;;;;;5053308;28;20513;-59
2023/05/23 01:29:39;;;;;;;4.70;4.20;;;;;;;;;;5053112;28;20546;-59
2023/05/23 01:32:07;;;;;;;4.40;3.97;;;;;;;;;;5053254;28;20505;-58
2023/05/23 01:34:35;;;;;;;4.93;3.93;;;;;;;;;;5053240;28;20454;-59
2023/05/23 01:37:02;;;;;;;4.63;3.93;;;;;;;;;;5053093;28;20486;-59
2023/05/23 01:39:29;;;;;;;6.17;4.30;;;;;;;;;;5053016;28;20496;-59
2023/05/23 01:41:56;;;;;;;4.40;4.07;;;;;;;;;;5052918;28;20459;-59
2023/05/23 01:44:23;;;;;;;5.70;4.47;;;;;;;;;;5052804;28;20460;-59
2023/05/23 01:46:51;;;;;;;5.30;4.30;;;;;;;;;;5053113;28;20455;-59
2023/05/23 01:49:18;;;;;;;5.73;4.33;;;;;;;;;;5052146;28;20461;-59
2023/05/23 01:51:46;;;;;;;5.37;4.37;;;;;;;;;;5052811;28;21028;-59
2023/05/23 01:54:15;;;;;;;4.23;3.83;;;;;;;;;;5052759;28;20486;-59
2023/05/23 01:56:42;;;;;;;5.67;4.27;;;;;;;;;;5052917;28;20551;-59
2023/05/23 01:59:09;;;;;;;4.97;4.53;;;;;;;;;;5053061;28;20462;-59
2023/05/23 02:01:36;;;;;;;5.53;4.47;;;;;;;;;;5053022;28;20454;-59
2023/05/23 02:04:05;;;;;;;4.07;3.87;;;;;;;;;;5052937;28;20450;-61
2023/05/23 02:06:33;;;;;;;4.90;4.60;;;;;;;;;;5052910;28;20455;-59
2023/05/23 02:09:02;;;;;;;4.40;4.00;;;;;;;;;;5052742;28;20450;-59
2023/05/23 02:11:29;;;;;;;4.83;4.43;;;;;;;;;;5052774;28;20461;-59
2023/05/23 02:13:56;;;;;;;4.97;3.97;;;;;;;;;;5052679;28;20458;-59
2023/05/23 02:16:24;;;;;;;8.70;4.30;;;;;;;;;;5052733;28;20592;-59
2023/05/23 02:18:55;;;;;;;4.70;4.30;;;;;;;;;;5052734;28;20454;-59
2023/05/23 02:21:23;;;;;;;4.13;3.80;;;;;;;;;;5052992;28;20462;-59
2023/05/23 02:23:50;;;;;;;4.73;4.33;;;;;;;;;;5052602;28;20453;-59
2023/05/23 02:26:17;;;;;;;5.57;4.40;;;;;;;;;;5052782;28;20450;-60
2023/05/23 02:28:44;;;;;;;4.40;4.00;;;;;;;;;;5052671;28;20470;-59
2023/05/23 02:31:11;;;;;;;5.70;4.77;;;;;;;;;;5052679;28;20453;-59
2023/05/23 02:33:38;;;;;;;6.40;4.70;;;;;;;;;;5052571;28;20446;-59
2023/05/23 02:36:05;;;;;;;4.87;4.47;;;;;;;;;;5052462;28;20480;-59
2023/05/23 02:38:33;;;;;;;4.93;4.33;;;;;;;;;;5052353;28;21000;-59
2023/05/23 02:41:02;;;;;;;5.37;4.87;;;;;;;;;;5052405;28;20953;-59
2023/05/23 02:43:29;;;;;;;5.17;4.77;;;;;;;;;;5052548;28;20445;-59
2023/05/23 02:45:56;;;;;;;4.60;4.20;;;;;;;;;;5052489;28;20458;-59
2023/05/23 02:48:23;;;;;;;5.70;5.20;;;;;;;;;;5052353;28;20454;-59
2023/05/23 02:50:50;;;;;;;4.80;4.30;;;;;;;;;;5052268;28;20943;-59
2023/05/23 02:53:17;;;;;;;8.40;4.70;;;;;;;;;;5052291;28;20552;-59
2023/05/23 02:55:46;;;;;;;5.40;4.90;;;;;;;;;;5052375;28;20450;-59
2023/05/23 02:58:13;;;;;;;4.70;4.20;;;;;;;;;;5052378;28;20545;-59
2023/05/23 03:00:42;;;;;;;4.80;4.30;;;;;;;;;;5053731;28;20461;-59
2023/05/23 03:03:10;;;;;;;5.40;4.47;;;;;;;;;;5056097;28;20455;-59
2023/05/23 03:05:37;;;;;;;5.73;4.77;;;;;;;;;;5055834;28;20501;-59
2023/05/23 03:08:04;;;;;;;5.20;4.70;;;;;;;;;;5056134;28;20457;-60
2023/05/23 03:10:31;;;;;;;4.83;4.43;;;;;;;;;;5056137;28;20452;-59
2023/05/23 03:13:01;;;;;;;6.17;5.07;;;;;;;;;;5056013;28;20493;-59
2023/05/23 03:15:28;;;;;;;8.10;4.73;;;;;;;;;;5055900;28;20460;-59
2023/05/23 03:17:54;;;;;;;6.10;4.50;;;;;;;;;;5055622;28;20570;-59
2023/05/23 03:20:21;;;;;;;5.00;4.60;;;;;;;;;;5055990;28;20463;-60
2023/05/23 03:22:48;;;;;;;5.13;4.73;;;;;;;;;;5055715;28;20961;-59
2023/05/23 03:25:16;;;;;;;5.50;5.00;;;;;;;;;;5055818;28;20820;-59
2023/05/23 03:27:42;;;;;;;5.27;4.87;;;;;;;;;;5055699;28;20469;-59
2023/05/23 03:30:11;;;;;;;5.10;4.40;;;;;;;;;;5055580;28;20451;-59
2023/05/23 03:32:38;;;;;;;5.93;5.43;;;;;;;;;;5055497;28;20457;-59
2023/05/23 03:35:07;;;;;;;5.70;5.20;;;;;;;;;;5055365;28;20953;-59
2023/05/23 03:37:34;;;;;;;4.60;4.20;;;;;;;;;;5055585;28;20486;-59
2023/05/23 03:40:02;;;;;;;7.10;5.20;;;;;;;;;;5055544;28;20457;-59
2023/05/23 03:42:31;;;;;;;6.20;5.20;;;;;;;;;;5055314;28;20961;-59
2023/05/23 03:44:58;;;;;;;6.90;5.17;;;;;;;;;;5055302;28;20816;-59
2023/05/23 03:47:26;;;;;;;5.43;4.90;;;;;;;;;;5055266;28;20513;-59
2023/05/23 03:49:53;;;;;;;6.50;4.73;;;;;;;;;;5055294;28;20449;-59
2023/05/23 03:52:20;;;;;;;7.37;4.50;;;;;;;;;;5055387;28;20551;-59
2023/05/23 03:54:47;;;;;;;7.47;5.00;;;;;;;;;;5055087;28;20833;-59
2023/05/23 03:57:18;;;;;;;5.90;5.20;;;;;;;;;;5055162;28;20490;-59
2023/05/23 03:59:45;;;;;;;5.20;4.70;;;;;;;;;;5054914;28;20461;-59
2023/05/23 04:02:12;;;;;;;8.43;4.63;;;;;;;;;;5055249;28;20868;-59
2023/05/23 04:04:40;;;;;;;5.57;5.00;;;;;;;;;;5055187;28;20454;-59
2023/05/23 04:07:08;;;;;;;7.60;5.10;;;;;;;;;;5054794;28;20971;-59
2023/05/23 04:09:35;;;;;;;6.80;4.93;;;;;;;;;;5054858;28;20450;-59
2023/05/23 04:12:02;;;;;;;6.20;5.37;;;;;;;;;;5054055;28;20979;-59
2023/05/23 04:14:29;;;;;;;5.63;5.23;;;;;;;;;;5055015;28;20998;-58
2023/05/23 04:16:56;;;;;;;6.03;4.60;;;;;;;;;;5054737;28;20476;-59
2023/05/23 04:19:25;;;;;;;6.43;5.80;;;;;;;;;;5054797;28;20458;-59
2023/05/23 04:21:53;;;;;;;7.57;6.00;;;;;;;;;;5054689;28;20815;-59
2023/05/23 04:24:22;;;;;;;5.07;4.57;;;;;;;;;;5054618;28;20796;-59
2023/05/23 04:26:49;;;;;;;5.80;5.20;;;;;;;;;;5054407;28;20462;-59
2023/05/23 04:29:17;;;;;;;5.57;5.17;;;;;;;;;;5054504;28;20447;-59
2023/05/23 04:31:45;;;;;;;8.03;5.30;;;;;;;;;;5054550;28;20545;-59
2023/05/23 04:34:16;;;;;;;6.90;4.83;;;;;;;;;;5054451;28;20451;-59
2023/05/23 04:36:44;;;;;;;8.63;5.60;;;;;;;;;;5054408;28;20563;-59
2023/05/23 04:39:12;;;;;;;5.70;5.20;;;;;;;;;;5054213;28;20845;-59
2023/05/23 04:41:39;;;;;;;7.43;5.70;;;;;;;;;;5054568;28;20877;-59
2023/05/23 04:44:08;;;;;;;5.93;5.43;;;;;;;;;;5054379;28;20909;-59
2023/05/23 04:46:35;;;;;;;7.90;5.47;;;;;;;;;;5054158;28;20487;-59
2023/05/23 04:49:02;;;;;;;6.70;5.27;;;;;;;;;;5054060;28;20497;-59
2023/05/23 04:51:29;;;;;;;5.40;5.00;;;;;;;;;;5054096;28;20537;-59
2023/05/23 04:53:56;;;;;;;6.57;5.97;;;;;;;;;;5053713;28;20471;-59
2023/05/23 04:56:26;;;;;;;6.67;5.50;;;;;;;;;;5054130;28;20811;-59
2023/05/23 04:58:53;;;;;;;6.40;5.77;;;;;;;;;;5053892;28;20525;-59
2023/05/23 05:01:23;;;;;;;6.03;5.40;;;;;;;;;;5053894;28;20446;-59
2023/05/23 05:03:49;;;;;;;7.27;5.63;;;;;;;;;;5053790;28;20504;-59
2023/05/23 05:06:17;;;;;;;8.00;5.83;;;;;;;;;;5053659;28;20452;-59
2023/05/23 05:08:44;;;;;;;7.20;5.50;;;;;;;;;;5053851;28;20455;-59
2023/05/23 05:11:11;;;;;;;9.93;5.87;;;;;;;;;;5053715;28;20874;-59
2023/05/23 05:13:39;;;;;;;7.00;5.90;;;;;;;;;;5053725;28;20446;-59
2023/05/23 05:16:06;;;;;;;6.40;5.80;;;;;;;;;;5053664;28;20447;-59
2023/05/23 05:18:35;;;;;;;7.17;6.30;;;;;;;;;;5053485;28;20519;-59
2023/05/23 05:21:02;;;;;;;7.73;5.63;;;;;;;;;;5053416;28;20969;-59
2023/05/23 05:23:29;;;;;;;7.13;6.27;;;;;;;;;;5053072;28;20454;-59
2023/05/23 05:25:57;;;;;;;7.70;6.97;;;;;;;;;;5053112;28;20461;-59
2023/05/23 05:28:23;;;;;;;30.13;19.30;;;;;;;;;;5053269;28;20454;-59
2023/05/23 05:30:53;;;;;;;12.40;10.50;;;;;;;;;;5053335;28;20512;-59
2023/05/23 05:33:22;;;;;;;9.10;6.80;;;;;;;;;;5053196;28;20830;-59
2023/05/23 05:35:48;;;;;;;7.03;6.43;;;;;;;;;;5053253;28;20500;-59
2023/05/23 05:38:15;;;;;;;6.90;6.20;;;;;;;;;;5053130;28;20581;-59
2023/05/23 05:40:42;;;;;;;6.80;6.13;;;;;;;;;;5053371;28;20451;-59
2023/05/23 05:43:09;;;;;;;6.93;6.23;;;;;;;;;;5053012;28;21015;-59
2023/05/23 05:45:36;;;;;;;6.57;5.73;;;;;;;;;;5052994;28;20459;-59
2023/05/23 05:48:05;;;;;;;6.30;5.70;;;;;;;;;;5052762;28;20451;-59
2023/05/23 05:50:31;;;;;;;7.67;6.53;;;;;;;;;;5053003;28;20863;-59
2023/05/23 05:52:58;;;;;;;7.30;5.80;;;;;;;;;;5053002;28;20454;-59
2023/05/23 05:55:25;;;;;;;7.43;6.10;;;;;;;;;;5052665;28;20562;-59
2023/05/23 05:57:52;;;;;;;13.43;6.20;;;;;;;;;;5052737;28;20862;-58
2023/05/23 06:00:20;;;;;;;6.40;5.80;;;;;;;;;;5052634;28;20547;-58
2023/05/23 06:02:50;;;;;;;7.10;6.40;;;;;;;;;;5052923;28;20841;-58
2023/05/23 06:05:18;;;;;;;7.60;6.80;;;;;;;;;;5052745;28;20451;-58
2023/05/23 06:07:45;;;;;;;7.20;6.00;;;;;;;;;;5052766;28;20476;-57
2023/05/23 06:10:12;;;;;;;12.37;6.87;;;;;;;;;;5052666;28;20451;-58
2023/05/23 06:12:41;;;;;;;8.17;7.33;;;;;;;;;;5052695;28;20450;-58
2023/05/23 06:15:09;;;;;;;7.37;6.77;;;;;;;;;;5052634;28;20520;-58
2023/05/23 06:17:36;;;;;;;6.97;6.27;;;;;;;;;;5052757;28;20511;-58
2023/05/23 06:20:05;;;;;;;8.30;6.60;;;;;;;;;;5052736;28;20540;-58
2023/05/23 06:22:33;;;;;;;7.17;6.47;;;;;;;;;;5059159;28;20455;-58
2023/05/23 06:25:00;;;;;;;6.63;6.13;;;;;;;;;;5072862;28;20446;-58
2023/05/23 06:27:27;;;;;;;9.73;6.57;;;;;;;;;;5072259;28;20449;-58
2023/05/23 06:29:54;;;;;;;8.00;7.20;;;;;;;;;;5072355;28;20803;-58
2023/05/23 06:32:21;;;;;;;12.60;6.97;;;;;;;;;;5072431;28;20531;-58
2023/05/23 06:34:47;;;;;;;6.77;6.10;;;;;;;;;;5072537;28;20544;-58
2023/05/23 06:37:15;;;;;;;7.83;7.03;;;;;;;;;;5076229;28;20446;-58
2023/05/23 06:39:43;;;;;;;7.53;6.50;;;;;;;;;;5076300;28;20445;-58
2023/05/23 06:42:12;;;;;;;8.80;7.77;;;;;;;;;;5076171;28;20450;-58
2023/05/23 06:44:41;;;;;;;7.50;6.87;;;;;;;;;;5076005;28;20460;-59
2023/05/23 06:47:08;;;;;;;7.73;6.97;;;;;;;;;;5075535;28;20486;-58
2023/05/23 06:49:36;;;;;;;7.47;6.77;;;;;;;;;;5077825;28;20495;-58
2023/05/23 06:52:03;;;;;;;7.07;6.50;;;;;;;;;;5075532;28;20446;-58
2023/05/23 06:54:30;;;;;;;7.37;6.63;;;;;;;;;;5075236;28;20481;-58
2023/05/23 06:56:58;;;;;;;7.60;5.90;;;;;;;;;;5075816;28;20457;-58
2023/05/23 06:59:25;;;;;;;10.93;9.77;;;;;;;;;;5075826;28;20528;-59
2023/05/23 07:01:54;;;;;;;7.77;7.07;;;;;;;;;;5075879;28;20813;-59
2023/05/23 07:04:31;;;;;;;7.90;6.50;;;;;;;;;;5075960;28;20505;-58
2023/05/23 07:06:57;;;;;;;11.60;10.50;;;;;;;;;;5075965;28;20816;-60
2023/05/23 07:09:24;;;;;;;8.20;7.10;;;;;;;;;;5076064;28;20460;-58
2023/05/23 07:11:51;;;;;;;8.87;6.67;;;;;;;;;;5075880;28;20449;-58
2023/05/23 07:14:20;;;;;;;7.80;7.07;;;;;;;;;;5075924;28;20501;-59
2023/05/23 07:16:47;;;;;;;15.33;7.63;;;;;;;;;;5075519;28;20441;-59
2023/05/23 07:19:13;;;;;;;7.97;7.10;;;;;;;;;;5075620;28;20482;-59
2023/05/23 07:21:40;;;;;;;7.47;6.77;;;;;;;;;;5075615;28;20553;-57
2023/05/23 07:24:07;;;;;;;7.97;7.27;;;;;;;;;;5075629;28;20454;-59
2023/05/23 07:26:34;;;;;;;7.67;6.70;;;;;;;;;;5075685;28;20802;-59
2023/05/23 07:29:01;;;;;;;9.10;7.87;;;;;;;;;;5075629;28;20449;-61
2023/05/23 07:31:29;;;;;;;8.40;7.60;;;;;;;;;;5075458;28;20542;-57
2023/05/23 07:33:56;;;;;;;8.27;7.40;;;;;;;;;;5075100;28;20537;-58
2023/05/23 07:36:23;;;;;;;7.87;7.07;;;;;;;;;;5075345;28;20540;-59
2023/05/23 07:38:52;;;;;;;7.83;6.60;;;;;;;;;;5075300;28;20490;-57
2023/05/23 07:41:18;;;;;;;7.10;6.50;;;;;;;;;;5075490;28;20454;-57
2023/05/23 07:43:45;;;;;;;8.80;6.93;;;;;;;;;;5075027;28;20455;-59
2023/05/23 07:46:12;;;;;;;6.93;6.33;;;;;;;;;;5075143;28;20452;-52
2023/05/23 07:48:40;;;;;;;7.17;6.47;;;;;;;;;;5074289;28;20465;-60
2023/05/23 07:51:07;;;;;;;6.97;6.30;;;;;;;;;;5075098;28;20539;-59
2023/05/23 07:53:38;;;;;;;7.90;6.53;;;;;;;;;;5075386;28;20475;-58
2023/05/23 07:56:05;;;;;;;6.30;5.67;;;;;;;;;;5075589;28;20467;-56
2023/05/23 07:58:32;;;;;;;7.70;6.90;;;;;;;;;;5071892;28;20490;-59
2023/05/23 08:00:59;;;;;;;6.43;5.80;;;;;;;;;;5075069;28;20447;-58
2023/05/23 08:03:26;;;;;;;7.10;6.50;;;;;;;;;;5074876;28;20559;-58
2023/05/23 08:05:54;;;;;;;10.07;6.47;;;;;;;;;;5074853;28;20451;-59
2023/05/23 08:08:21;;;;;;;7.87;6.57;;;;;;;;;;5054721;28;20456;-59
2023/05/23 08:10:48;;;;;;;7.73;6.87;;;;;;;;;;5054855;28;20459;-58
2023/05/23 08:13:15;;;;;;;7.87;7.07;;;;;;;;;;5054799;28;20452;-59
2023/05/23 08:15:42;;;;;;;7.13;5.90;;;;;;;;;;5056226;28;20452;-58
2023/05/23 08:18:10;;;;;;;9.03;5.90;;;;;;;;;;5074694;28;20807;-60
2023/05/23 08:20:36;;;;;;;9.20;6.87;;;;;;;;;;5074586;28;20479;-60
2023/05/23 08:23:05;;;;;;;7.30;5.70;;;;;;;;;;5074117;28;20443;-60
2023/05/23 08:25:32;;;;;;;9.77;5.70;;;;;;;;;;5074051;28;20481;-60
2023/05/23 08:27:59;;;;;;;10.27;5.63;;;;;;;;;;5074538;28;20444;-57
2023/05/23 08:30:26;;;;;;;8.83;5.60;;;;;;;;;;5074020;28;20546;-60
2023/05/23 08:32:54;;;;;;;5.80;5.30;;;;;;;;;;5074662;28;20509;-59
2023/05/23 08:35:21;;;;;;;12.30;6.03;;;;;;;;;;5074076;28;20479;-59
2023/05/23 08:37:48;;;;;;;11.57;6.13;;;;;;;;;;5074458;28;20463;-59
2023/05/23 08:40:19;;;;;;;8.13;6.83;;;;;;;;;;5074218;28;20484;-59
2023/05/23 08:42:46;;;;;;;7.33;6.63;;;;;;;;;;5073934;28;20474;-59
2023/05/23 08:45:13;;;;;;;7.93;6.00;;;;;;;;;;5073837;28;20664;-59
2023/05/23 08:47:42;;;;;;;5.10;4.70;;;;;;;;;;5074163;28;20458;-59
2023/05/23 08:50:11;;;;;;;5.57;5.03;;;;;;;;;;5073763;28;21046;-59
2023/05/23 08:52:42;;;;;;;6.30;5.70;;;;;;;;;;5074007;28;20444;-59
2023/05/23 08:55:10;;;;;;;6.27;5.10;;;;;;;;;;5073767;28;20480;-59
2023/05/23 08:57:42;;;;;;;6.83;6.20;;;;;;;;;;5073717;28;20454;-59
2023/05/23 09:00:13;;;;;;;6.20;4.80;;;;;;;;;;5073460;28;20486;-60
2023/05/23 09:02:40;;;;;;;8.03;4.70;;;;;;;;;;5054633;28;20452;-59
2023/05/23 09:05:09;;;;;;;7.50;4.50;;;;;;;;;;5053692;28;20437;-58
2023/05/23 09:07:36;;;;;;;5.80;5.20;;;;;;;;;;5061635;28;20448;-59
2023/05/23 09:10:03;;;;;;;5.73;5.20;;;;;;;;;;5070396;28;20456;-58
2023/05/23 09:12:32;;;;;;;5.13;4.73;;;;;;;;;;5073062;28;20444;-58
2023/05/23 09:15:00;;;;;;;5.33;4.73;;;;;;;;;;5073680;28;20448;-59
2023/05/23 09:17:27;;;;;;;4.83;4.43;;;;;;;;;;5073761;28;20448;-58
2023/05/23 09:19:54;;;;;;;5.50;5.00;;;;;;;;;;5073372;28;20816;-59
2023/05/23 09:22:25;;;;;;;4.50;4.10;;;;;;;;;;5073323;28;20543;-58
2023/05/23 09:24:52;;;;;;;8.07;4.40;;;;;;;;;;5073276;28;20483;-58
2023/05/23 09:27:19;;;;;;;5.50;4.93;;;;;;;;;;5073379;28;20479;-60
2023/05/23 09:29:47;;;;;;;7.10;4.77;;;;;;;;;;5073491;28;20491;-59
2023/05/23 09:32:16;;;;;;;9.10;5.03;;;;;;;;;;5073378;28;20448;-57
2023/05/23 09:34:43;;;;;;;5.23;4.83;;;;;;;;;;5073259;28;20479;-59
2023/05/23 09:37:17;;;;;;;6.80;4.60;;;;;;;;;;5072697;28;20456;-59
2023/05/23 09:39:46;;;;;;;4.93;4.53;;;;;;;;;;5073156;28;20479;-60
2023/05/23 09:42:13;;;;;;;4.90;4.50;;;;;;;;;;5073106;28;20543;-59
2023/05/23 09:44:42;;;;;;;5.80;5.30;;;;;;;;;;5072894;28;20452;-58
2023/05/23 09:47:09;;;;;;;4.83;4.40;;;;;;;;;;5073288;28;20452;-58
2023/05/23 09:49:39;;;;;;;5.70;5.03;;;;;;;;;;5072667;28;20443;-59
2023/05/23 09:52:06;;;;;;;5.57;5.07;;;;;;;;;;5072684;28;20446;-58
2023/05/23 09:54:33;;;;;;;5.73;5.07;;;;;;;;;;5075185;28;20468;-58
2023/05/23 09:57:00;;;;;;;9.27;5.90;;;;;;;;;;5072045;28;20953;-58
2023/05/23 09:59:28;;;;;;;5.77;5.10;;;;;;;;;;5072250;28;20467;-60
2023/05/23 10:01:57;;;;;;;5.10;4.70;;;;;;;;;;5072205;28;20451;-59
2023/05/23 10:04:26;;;;;;;7.97;5.60;;;;;;;;;;5071858;28;20452;-65
2023/05/23 10:06:58;;;;;;;5.13;4.63;;;;;;;;;;5071861;28;20436;-57
2023/05/23 10:09:27;;;;;;;5.33;4.83;;;;;;;;;;5072200;28;20436;-59
2023/05/23 10:12:19;;;;;;;5.67;4.50;;;;;;;;;;5070745;28;20446;-59
2023/05/23 10:14:52;;;;;;;5.50;4.60;;;;;;;;;;5071741;28;20440;-59
2023/05/23 10:17:20;;;;;;;5.13;4.63;;;;;;;;;;5072421;28;20440;-59
2023/05/23 10:19:48;;;;;;;6.40;5.33;;;;;;;;;;5072676;28;20912;-59
2023/05/23 10:22:17;;;;;;;6.10;5.53;;;;;;;;;;5072649;28;20451;-59
2023/05/23 10:24:45;;;;;;;6.10;5.68;;;;;;;;;;5071774;28;20454;-58
2023/05/23 10:27:12;;;;;;;6.20;5.50;;;;;;;;;;5072519;28;20566;-59
2023/05/23 10:29:39;;;;;;;5.50;4.80;;;;;;;;;;5072448;28;20535;-59
2023/05/23 10:32:07;;;;;;;6.10;5.57;;;;;;;;;;5072774;28;20448;-59
2023/05/23 10:34:38;;;;;;;6.60;6.10;;;;;;;;;;5072507;28;20448;-59
2023/05/23 10:37:06;;;;;;;7.90;6.40;;;;;;;;;;5071783;28;20932;-59
2023/05/23 10:39:51;;;;;;;5.97;5.57;;;;;;;;;;5072326;28;20268;-60
2023/05/23 10:42:24;;;;;;;9.10;6.37;;;;;;;;;;5072294;28;20526;-59
2023/05/23 10:44:51;;;;;;;6.30;5.80;;;;;;;;;;5072431;28;20447;-59
2023/05/23 10:47:27;;;;;;;7.03;6.53;;;;;;;;;;5069509;28;20531;-58
2023/05/23 10:49:55;;;;;;;7.37;6.77;;;;;;;;;;5070335;28;20451;-60
2023/05/23 10:52:26;;;;;;;7.67;6.87;;;;;;;;;;5072518;28;20497;-59
2023/05/23 10:54:53;;;;;;;7.33;6.83;;;;;;;;;;5072181;28;20836;-59
2023/05/23 10:57:22;;;;;;;9.40;8.60;;;;;;;;;;5072168;28;20499;-59
2023/05/23 10:59:51;;;;;;;9.50;8.70;;;;;;;;;;5071632;28;20474;-60
2023/05/23 11:02:19;;;;;;;9.40;8.00;;;;;;;;;;5071746;28;21031;-59
2023/05/23 11:04:47;;;;;;;9.33;8.53;;;;;;;;;;5071750;28;20893;-59
2023/05/23 11:07:35;;;;;;;9.03;8.33;;;;;;;;;;5072161;28;20856;-60
2023/05/23 11:10:05;;;;;;;9.00;8.30;;;;;;;;;;5067304;28;20949;-60
2023/05/23 11:12:41;;;;;;;9.77;8.60;;;;;;;;;;5071788;28;20543;-59
2023/05/23 11:15:22;;;;;;;10.13;9.23;;;;;;;;;;5070610;28;20448;-58
2023/05/23 11:17:51;;;;;;;13.20;12.13;;;;;;;;;;5069754;28;20210;-58
2023/05/23 11:20:22;;;;;;;12.77;11.47;;;;;;;;;;5072250;28;20490;-59
2023/05/23 11:22:54;;;;;;;12.30;11.13;;;;;;;;;;5074920;28;20484;-59
2023/05/23 11:25:21;;;;;;;10.50;9.63;;;;;;;;;;5075484;28;20463;-59
2023/05/23 11:27:50;;;;;;;10.03;9.17;;;;;;;;;;5075441;28;20947;-59
2023/05/23 11:30:18;;;;;;;10.13;9.23;;;;;;;;;;5075661;28;20448;-60
2023/05/23 11:32:50;;;;;;;10.90;9.90;;;;;;;;;;5075487;28;20548;-58
2023/05/23 11:35:17;;;;;;;10.97;9.83;;;;;;;;;;5075623;28;20798;-58
2023/05/23 11:37:45;;;;;;;9.70;8.90;;;;;;;;;;5075303;28;20476;-59
2023/05/23 11:40:29;;;;;;;11.37;10.43;;;;;;;;;;5075030;28;20975;-59
2023/05/23 11:42:58;;;;;;;10.93;9.60;;;;;;;;;;5075282;28;20538;-61
2023/05/23 11:45:25;;;;;;;13.43;10.70;;;;;;;;;;5075225;28;20460;-59
2023/05/23 11:47:51;;;;;;;12.07;11.20;;;;;;;;;;5075164;28;20543;-59
2023/05/23 11:50:19;;;;;;;11.87;10.87;;;;;;;;;;5075246;28;20950;-58
2023/05/23 11:52:50;;;;;;;12.80;11.60;;;;;;;;;;5075101;28;20459;-59
2023/05/23 11:55:17;;;;;;;11.23;10.33;;;;;;;;;;5075025;28;20476;-59
2023/05/23 11:57:45;;;;;;;11.47;10.30;;;;;;;;;;5075189;28;20444;-58
2023/05/23 12:00:14;;;;;;;10.80;9.90;;;;;;;;;;5074988;28;20991;-62
2023/05/23 12:02:41;;;;;;;12.27;11.13;;;;;;;;;;5075155;28;20943;-60
2023/05/23 12:05:09;;;;;;;13.83;12.53;;;;;;;;;;5074386;28;20446;-58
2023/05/23 12:07:36;;;;;;;14.00;12.82;;;;;;;;;;5074391;28;20885;-58
2023/05/23 12:10:03;;;;;;;13.83;12.63;;;;;;;;;;5074930;28;20208;-58
2023/05/23 12:12:32;;;;;;;12.97;11.87;;;;;;;;;;5074744;28;20547;-59
2023/05/23 12:14:59;;;;;;;14.43;12.97;;;;;;;;;;5074597;28;20475;-61
2023/05/23 12:17:27;;;;;;;13.17;11.97;;;;;;;;;;5074259;28;20554;-61
2023/05/23 12:19:54;;;;;;;12.60;11.40;;;;;;;;;;5074393;28;20464;-59
2023/05/23 12:22:24;;;;;;;10.13;9.33;;;;;;;;;;5074550;28;20557;-62
2023/05/23 12:24:54;;;;;;;12.87;11.67;;;;;;;;;;5074545;28;20491;-59
2023/05/23 12:27:27;;;;;;;13.47;12.23;;;;;;;;;;5074362;28;20452;-60
2023/05/23 12:30:05;;;;;;;15.20;14.00;;;;;;;;;;5074096;28;20543;-59
2023/05/23 12:32:34;;;;;;;12.97;11.77;;;;;;;;;;5074614;28;20456;-60
2023/05/23 12:35:01;;;;;;;14.97;13.67;;;;;;;;;;5074414;28;20628;-59
2023/05/23 12:37:28;;;;;;;13.80;12.40;;;;;;;;;;5074357;28;20546;-59
2023/05/23 12:39:55;;;;;;;12.70;11.60;;;;;;;;;;5073599;28;20475;-61
2023/05/23 12:42:22;;;;;;;14.27;12.87;;;;;;;;;;5073776;28;20466;-59
2023/05/23 12:44:51;;;;;;;14.73;13.40;;;;;;;;;;5073552;28;20495;-60
2023/05/23 12:47:19;;;;;;;13.03;11.83;;;;;;;;;;5071499;28;20448;-59
2023/05/23 12:49:47;;;;;;;14.93;13.10;;;;;;;;;;5073687;28;20470;-60
2023/05/23 12:52:14;;;;;;;14.07;12.17;;;;;;;;;;5071146;28;20531;-60
2023/05/23 12:54:41;;;;;;;14.00;12.63;;;;;;;;;;5073292;28;20891;-60
2023/05/23 12:57:08;;;;;;;13.23;12.03;;;;;;;;;;5073909;28;20535;-62
2023/05/23 12:59:35;;;;;;;11.80;10.60;;;;;;;;;;5073904;28;20539;-62
2023/05/23 13:02:02;;;;;;;13.40;12.00;;;;;;;;;;5074029;28;21014;-60
2023/05/23 13:04:28;;;;;;;14.20;10.63;;;;;;;;;;5073729;28;20479;-59
2023/05/23 13:06:57;;;;;;;13.20;11.90;;;;;;;;;;5073749;28;20458;-57
2023/05/23 13:09:24;;;;;;;13.57;12.20;;;;;;;;;;5073667;28;20810;-59
2023/05/23 13:11:50;;;;;;;14.30;12.80;;;;;;;;;;5074074;28;20547;-58
2023/05/23 13:14:17;;;;;;;12.90;11.60;;;;;;;;;;5073783;28;20567;-58
2023/05/23 13:16:44;;;;;;;13.80;12.50;;;;;;;;;;5073022;28;20457;-58
2023/05/23 13:19:11;;;;;;;13.17;11.93;;;;;;;;;;5072624;28;20934;-59
2023/05/23 13:21:38;;;;;;;12.87;11.80;;;;;;;;;;5073029;28;20484;-58
2023/05/23 13:24:07;;;;;;;12.27;11.17;;;;;;;;;;5069450;28;20543;-59
2023/05/23 13:26:34;;;;;;;13.30;12.03;;;;;;;;;;5070946;28;20769;-59
2023/05/23 13:29:01;;;;;;;12.33;11.10;;;;;;;;;;5071199;28;20970;-58
2023/05/23 13:31:28;;;;;;;13.87;12.40;;;;;;;;;;5071552;28;20807;-58
2023/05/23 13:33:55;;;;;;;12.53;11.43;;;;;;;;;;5072092;28;20448;-58
2023/05/23 13:36:22;;;;;;;14.20;12.93;;;;;;;;;;5071677;28;20559;-58
2023/05/23 13:38:49;;;;;;;11.87;10.90;;;;;;;;;;5072175;28;20462;-58
2023/05/23 13:41:17;;;;;;;12.60;11.27;;;;;;;;;;5073300;28;20590;-58
2023/05/23 13:43:44;;;;;;;11.07;10.17;;;;;;;;;;5073014;28;20542;-58
2023/05/23 13:46:12;;;;;;;10.87;9.87;;;;;;;;;;5071940;28;20955;-59
2023/05/23 13:48:39;;;;;;;11.77;10.77;;;;;;;;;;5069994;28;20459;-60
2023/05/23 13:51:06;;;;;;;12.47;10.37;;;;;;;;;;5073267;28;20443;-60
2023/05/23 13:53:33;;;;;;;11.33;10.37;;;;;;;;;;5072741;28;20475;-60
2023/05/23 13:56:00;;;;;;;10.90;9.80;;;;;;;;;;5073071;28;20461;-59
2023/05/23 13:58:28;;;;;;;11.80;10.30;;;;;;;;;;5072956;28;20447;-59
2023/05/23 14:00:55;;;;;;;12.70;11.23;;;;;;;;;;5072941;28;20906;-59
2023/05/23 14:03:23;;;;;;;13.97;12.60;;;;;;;;;;5072559;28;20482;-60
2023/05/23 14:05:50;;;;;;;14.90;13.43;;;;;;;;;;5072209;28;20501;-60
2023/05/23 14:08:17;;;;;;;13.53;12.33;;;;;;;;;;5072626;28;21041;-60
2023/05/23 14:10:44;;;;;;;12.83;11.63;;;;;;;;;;5072553;28;20458;-60
2023/05/23 14:13:11;;;;;;;15.17;13.77;;;;;;;;;;5072365;28;20510;-60
2023/05/23 14:15:40;;;;;;;14.50;13.00;;;;;;;;;;5072673;28;20451;-59
2023/05/23 14:18:07;;;;;;;15.47;13.20;;;;;;;;;;5072727;28;20494;-59
2023/05/23 14:20:34;;;;;;;14.37;13.07;;;;;;;;;;5072320;28;20471;-60
2023/05/23 14:23:01;;;;;;;19.20;15.97;;;;;;;;;;5072839;28;20947;-59
2023/05/23 14:25:29;;;;;;;17.93;16.10;;;;;;;;;;5072519;28;20458;-59
2023/05/23 14:27:56;;;;;;;16.87;15.07;;;;;;;;;;5072140;28;20451;-60
2023/05/23 14:30:23;;;;;;;17.60;15.73;;;;;;;;;;5073246;28;20864;-59
2023/05/23 14:32:51;;;;;;;17.10;15.40;;;;;;;;;;5072051;28;20472;-60
2023/05/23 14:35:18;;;;;;;16.27;14.67;;;;;;;;;;5072277;28;20537;-59
2023/05/23 14:37:46;;;;;;;16.77;14.70;;;;;;;;;;5072443;28;20513;-59
2023/05/23 14:40:13;;;;;;;17.17;15.47;;;;;;;;;;5072024;28;20525;-59